x

Buoy I01 - Eastern Maine Shelf (44034) Wave Buoy

8:04am - Sun 22nd Oct 2017 All times are EDT. -4 hours from GMT.

  • Sig Wave height 2.6ft
  • Peak Period 4s
  • Wind
    18mph, 20mph gusts
  • Sea Temp 54°f
  • Air Temp 54°f
  • Sea Pressure 1030.3mb
  • Buoy I01 - Eastern Maine Shelf
  • Buoy I01 - Eastern Maine Shelf

More Historic Weather Station data

Upgrade to MSW Pro to gain access to the past 30 days of data for over 8000 Wavebouys and Weather Stations around the globe.

Join

Comparision Forecast

View Surf forecast
   
Sun 10/22 8:04am 2.5ft 4s 18 20 mph 1030.3mb 54f 54f
7:04am 2ft 3s 18 20 mph 1029.8mb 54f 54f
6:04am 1.6ft 3s 13 16 mph 1028.8mb 54f 55f
5:04am 1ft  -  13 16 mph 1027.9mb 54f 55f
4:04am 1.3ft 11s 9 9 mph 1027.5mb 55f 55f
3:04am 1.3ft 11s 4 7 mph 1027mb 55f 55f
2:04am 1.3ft 11s 4 4 mph 1026.9mb 55f 55f
1:04am 1.3ft 8s 4 4 mph 1026.4mb 55f 55f
12:04am 1.3ft 11s 4 4 mph 1026.1mb 55f 55f
Sat 10/21 11:04pm 1.3ft 8s 2 2 mph 1026.1mb 55f 55f
10:04pm 1.3ft 8s 4 4 mph 1026.1mb 55f 55f
9:04pm 1ft 8s 4 4 mph 1026mb 55f 56f
8:04pm 1.3ft 8s 4 4 mph 1025.7mb 55f 56f
7:04pm 1.3ft 8s 7 9 mph 1025.3mb 55f 56f
6:04pm 1.3ft 8s 7 9 mph 1025.2mb 55f 56f
5:04pm 1.3ft 8s 7 7 mph 1024.5mb 55f 57f
4:04pm 1.3ft 6s 7 9 mph 1024.5mb 55f 58f
3:04pm 1.3ft 6s 7 7 mph 1024.1mb 55f 57f
2:04pm 1.6ft 6s 4 7 mph 1023.9mb 55f 58f
1:04pm 1.6ft 8s 4 4 mph 1023.7mb 55f 57f
12:04pm 1.6ft 8s 2 2 mph 1023.9mb 55f 57f
10:04am 2ft 8s 2 2 mph 1024.1mb 54f 56f
9:04am 2ft 8s 2 4 mph 1024mb 55f 55f
8:04am 2ft 8s 4 4 mph 1023.5mb 55f 55f
7:04am 1.6ft 8s 4 7 mph 1022.4mb 54f 54f
6:04am 2ft 11s 4 7 mph 1021.6mb 54f 54f
5:04am 2ft 8s 9 11 mph 1021.2mb 54f 55f
4:04am 2ft 8s 7 7 mph 1020.3mb 54f 55f
3:04am 2ft 5s 9 11 mph 1019.6mb 54f 55f
2:04am 2ft 5s 9 9 mph 1019.7mb 54f 55f
1:04am 2ft 5s 7 9 mph 1019.1mb 54f 56f
12:04am 2.5ft 5s 7 7 mph 1018.3mb 54f 56f
Fri 10/20 11:04pm 2.5ft 5s 7 9 mph 1017.8mb 54f 57f
10:04pm 3ft 5s 11 13 mph 1016.8mb 54f 58f
9:04pm 2.5ft 6s 11 13 mph 1015.9mb 55f 58f
8:04pm 2.5ft 5s 7 7 mph 1014.9mb 54f 58f
7:04pm 3.5ft 6s 13 13 mph 1014mb 55f 59f
6:04pm 3ft 6s 11 13 mph 1013.2mb 55f 59f
5:04pm 3ft 6s 9 9 mph 1012.3mb 55f 59f
4:04pm 2.5ft 6s 13 16 mph 1011.6mb 55f 60f
3:04pm 3.5ft 6s 13 16 mph 1011.3mb 55f 59f
2:04pm 3.5ft 6s 11 13 mph 1011.2mb 55f 59f
1:04pm 3.5ft 6s 9 13 mph 1011.9mb 55f 57f
9:04am 5ft 6s 9 11 mph 1013.5mb 55f 57f
8:04am 5ft 8s 9 11 mph 1013.4mb 54f 58f
7:04am 5.5ft 8s 11 16 mph 1012.8mb 54f 57f
6:04am 7ft 8s 9 9 mph 1012.2mb 54f 55f
5:04am 7ft 8s 7 9 mph 1011.7mb 54f 56f
4:04am 6.5ft 8s 11 11 mph 1011.3mb 54f 56f
3:04am 7.5ft 8s 18 20 mph 1011.1mb 54f 57f
2:04am 7.5ft 8s 18 20 mph 1011.2mb 54f 56f
1:04am 7ft 8s 20 22 mph 1011.4mb 54f 57f
12:04am 7.5ft 6s 22 27 mph 1011.5mb 54f 57f
Thu 10/19 11:04pm 7ft 6s 25 29 mph 1011.5mb 54f 57f
10:04pm 7ft 6s 25 29 mph 1011.9mb 54f 58f
9:04pm 7ft 6s 22 29 mph 1012.4mb 54f 58f
8:04pm 6ft 6s 25 29 mph 1012.9mb 54f 58f
7:04pm 5.5ft 5s 25 27 mph 1013.7mb 54f 58f
6:04pm 5ft 5s 22 27 mph 1014.3mb 54f 58f
5:04pm 5ft 5s 22 27 mph 1014.7mb 54f 58f
4:04pm 4.5ft 5s 20 25 mph 1016.1mb 54f 57f
3:04pm 4.5ft 5s 18 22 mph 1017.3mb 54f 56f
2:04pm 5ft 5s 20 22 mph 1018.4mb 54f 57f
1:04pm 4ft 5s 22 27 mph 1019.3mb 54f 56f
12:04pm 3.5ft 5s 20 25 mph 1020.2mb 54f 56f
11:04am 3ft 4s 18 20 mph 1020.9mb 54f 57f
10:04am 2.5ft 4s 18 22 mph 1021.6mb 54f 57f
9:04am 2.5ft 4s 16 18 mph 1022.1mb 54f 57f
7:04am 2ft 4s 13 16 mph 1022.5mb 54f 57f
6:04am 1.6ft 5s 11 13 mph 1022.9mb 54f 56f
5:04am 2.5ft 11s 9 9 mph 1023.2mb 54f 56f
4:04am 2.5ft 11s 7 7 mph 1023.2mb 54f 56f
3:04am 1.6ft 5s 7 7 mph 1023.2mb 54f 56f
2:04am 2.5ft 5s 7 9 mph 1023.4mb 54f 56f
1:04am 2.5ft 5s 7 9 mph 1023.6mb 54f 56f
12:04am 2.5ft 5s 2 4 mph 1023.7mb 54f 55f
Wed 10/18 11:04pm 2.5ft 5s 4 4 mph 1023.7mb 54f 56f
10:04pm 2.5ft 5s 4 7 mph 1023.5mb 54f 56f
9:04pm 2.5ft 6s 9 9 mph 1023.4mb 54f 56f
8:04pm 3ft 5s 11 13 mph 1022.8mb 54f 56f
7:04pm 3.5ft 6s 13 16 mph 1022.7mb 54f 56f
6:04pm 4ft 6s 11 13 mph 1021.8mb 54f 57f
5:04pm 4ft 6s 13 16 mph 1021.2mb 54f 57f
4:04pm 4ft 6s 16 18 mph 1020.8mb 54f 58f
3:04pm 4.5ft 6s 18 20 mph 1020.4mb 54f 57f
2:04pm 4ft 6s 16 20 mph 1020.3mb 54f 56f